Time;durP1;ratioP1;P1;durP2;ratioP2;P2;SDS_P1;SDS_P2;PMS_P1;PMS_P2;Temp;Humidity;BMP_temperature;BMP_pressure;BME280_temperature;BME280_humidity;BME280_pressure;Samples;Min_cycle;Max_cycle;Signal;HPM_P1;HPM_P2
2022/01/08 00:00:38;;;;;;;8.65;4.55;;;;;;;2.57;82.77;99501.56;4966974;28;20051;-91
2022/01/08 00:03:05;;;;;;;9.98;4.57;;;;;;;2.56;82.42;99498.09;4943659;28;20642;-92
2022/01/08 00:05:32;;;;;;;11.30;5.57;;;;;;;2.56;82.88;99492.84;4971385;28;20039;-91
2022/01/08 00:07:59;;;;;;;10.90;4.40;;;;;;;2.57;82.99;99478.84;4969430;28;20054;-89
2022/01/08 00:10:25;;;;;;;9.30;4.20;;;;;;;2.57;82.62;99486.69;4974058;28;20057;-90
2022/01/08 00:12:53;;;;;;;10.20;5.25;;;;;;;2.56;82.63;99466.66;4954461;28;20045;-93
2022/01/08 00:15:21;;;;;;;11.30;5.30;;;;;;;2.57;82.63;99464.88;4958746;28;20046;-92
2022/01/08 00:17:49;;;;;;;10.23;4.57;;;;;;;2.57;82.73;99441.28;4948711;28;20038;-91
2022/01/08 00:20:16;;;;;;;9.50;4.25;;;;;;;2.56;82.67;99447.47;4948868;28;20047;-91
2022/01/08 00:22:42;;;;;;;10.48;4.20;;;;;;;2.58;82.48;99437.72;4942244;28;20057;-90
2022/01/08 00:25:10;;;;;;;9.38;3.83;;;;;;;2.58;82.66;99437.72;4951834;28;20058;-91
2022/01/08 00:27:36;;;;;;;8.63;3.42;;;;;;;2.58;82.70;99429.88;4952104;28;20427;-92
2022/01/08 00:30:04;;;;;;;7.45;3.58;;;;;;;2.58;82.34;99424.63;4968344;28;20042;-91
2022/01/08 00:32:31;;;;;;;4.75;2.80;;;;;;;2.58;82.24;99420.22;4967964;28;20498;-93
2022/01/08 00:34:58;;;;;;;6.75;3.05;;;;;;;2.58;82.38;99412.34;4950174;28;20067;-91
2022/01/08 00:37:24;;;;;;;5.18;2.83;;;;;;;2.58;82.36;99411.53;4952719;28;20426;-91
2022/01/08 00:39:51;;;;;;;7.03;2.85;;;;;;;2.60;82.11;99409.66;4964917;28;20046;-92
2022/01/08 00:42:18;;;;;;;6.47;2.90;;;;;;;2.61;82.08;99406.09;4950837;28;20038;-91
2022/01/08 00:44:45;;;;;;;3.75;2.45;;;;;;;2.59;82.29;99406.16;4951036;28;20141;-91
2022/01/08 00:47:15;;;;;;;7.63;2.40;;;;;;;2.59;81.97;99397.47;4954231;28;20486;-91
2022/01/08 00:49:41;;;;;;;4.38;2.20;;;;;;;2.60;82.29;99397.38;4953154;28;20065;-92
2022/01/08 00:52:08;;;;;;;3.47;1.95;;;;;;;2.60;82.02;99391.31;4951243;28;20406;-91
2022/01/08 00:54:36;;;;;;;6.32;2.38;;;;;;;2.61;81.97;99393.81;4984901;28;20053;-92
2022/01/08 00:57:04;;;;;;;6.78;2.20;;;;;;;2.61;82.31;99392.97;4951991;28;20053;-92
2022/01/08 00:59:31;;;;;;;4.32;2.03;;;;;;;2.60;82.14;99397.38;4933708;28;20645;-91
2022/01/08 01:01:58;;;;;;;8.07;2.10;;;;;;;2.63;82.19;99390.28;4938453;28;20049;-92
2022/01/08 01:04:25;;;;;;;4.97;2.42;;;;;;;2.61;81.97;99393.81;4964351;28;20405;-92
2022/01/08 01:06:52;;;;;;;5.05;2.03;;;;;;;2.63;82.20;99385.03;4934348;28;20559;-91
2022/01/08 01:09:19;;;;;;;4.53;2.10;;;;;;;2.60;82.28;99378.19;4967413;28;20038;-92
2022/01/08 01:11:45;;;;;;;7.32;2.33;;;;;;;2.63;82.16;99378.00;4959118;28;20053;-92
2022/01/08 01:14:12;;;;;;;6.18;2.40;;;;;;;2.64;82.21;99376.22;4944038;28;20386;-91
2022/01/08 01:16:40;;;;;;;6.35;2.10;;;;;;;2.65;82.17;99381.38;4947309;28;20048;-92
2022/01/08 01:19:07;;;;;;;4.20;1.38;;;;;;;2.65;82.07;99375.28;4952120;28;20047;-91
2022/01/08 01:21:33;;;;;;;3.28;1.70;;;;;;;2.65;82.14;99380.53;4977401;28;20062;-91
2022/01/08 01:24:07;;;;;;;3.65;1.60;;;;;;;2.63;82.09;99364.06;4953775;28;20058;-91
2022/01/08 01:26:36;;;;;;;5.57;1.92;;;;;;;2.65;82.09;99363.03;4915144;28;20305;-90
2022/01/08 01:29:26;;;;;;;3.05;1.67;;;;;;;2.64;82.15;99340.34;4938122;28;20051;-91
2022/01/08 01:48:43;;;;;;;5.45;2.05;;;;;;;2.59;81.85;99300.50;4887623;28;20047;-92
2022/01/08 01:51:20;;;;;;;7.47;2.03;;;;;;;2.58;81.50;99283.09;4955774;28;20042;-91
2022/01/08 01:53:47;;;;;;;7.82;2.05;;;;;;;2.58;81.96;99275.22;4932620;28;20422;-89
2022/01/08 01:56:20;;;;;;;3.88;2.10;;;;;;;2.55;81.82;99268.41;4955645;28;20071;-91
2022/01/08 01:58:48;;;;;;;5.80;2.47;;;;;;;2.58;82.14;99262.97;4973146;28;20608;-91
2022/01/08 02:01:15;;;;;;;7.10;2.60;;;;;;;2.59;81.88;99254.16;4983178;28;20042;-91
2022/01/08 02:03:42;;;;;;;5.07;1.88;;;;;;;2.59;81.97;99248.91;4944567;28;20049;-91
2022/01/08 02:06:09;;;;;;;4.72;1.90;;;;;;;2.58;81.83;99233.28;4969403;28;20038;-90
2022/01/08 02:08:37;;;;;;;7.30;1.90;;;;;;;2.61;81.92;99230.47;4957240;28;20050;-92
2022/01/08 02:11:06;;;;;;;5.28;1.65;;;;;;;2.65;81.65;99218.84;4964610;28;20673;-91
2022/01/08 02:13:34;;;;;;;6.65;1.80;;;;;;;2.63;81.95;99204.16;4971121;28;20058;-90
2022/01/08 02:16:01;;;;;;;4.88;1.83;;;;;;;2.57;82.07;99198.38;4942027;28;20537;-90
2022/01/08 02:18:30;;;;;;;8.73;2.08;;;;;;;2.59;81.83;99193.03;4937621;28;20057;-91
2022/01/08 02:20:59;;;;;;;4.97;2.05;;;;;;;2.64;81.63;99190.94;4968571;28;20109;-90
2022/01/08 02:23:26;;;;;;;6.95;1.88;;;;;;;2.63;81.68;99178.78;4977077;28;20066;-91
2022/01/08 02:26:04;;;;;;;3.83;1.38;;;;;;;2.55;81.57;99179.28;4967953;28;20097;-91
2022/01/08 02:28:31;;;;;;;6.47;2.15;;;;;;;2.62;81.61;99171.88;4981510;28;20490;-90
2022/01/08 02:30:57;;;;;;;5.75;1.92;;;;;;;2.63;81.83;99170.09;4974549;28;20054;-90
2022/01/08 02:33:28;;;;;;;4.80;1.95;;;;;;;2.59;81.79;99158.94;4975280;28;20705;-89
2022/01/08 02:35:56;;;;;;;3.83;1.50;;;;;;;2.60;81.56;99164.09;4965455;28;20141;-89
2022/01/08 02:38:23;;;;;;;6.20;1.90;;;;;;;2.64;81.82;99156.88;4977073;28;20558;-90
2022/01/08 02:41:03;;;;;;;6.88;2.13;;;;;;;2.67;81.41;99163.69;4980656;28;20053;-90
2022/01/08 02:43:33;;;;;;;5.13;1.98;;;;;;;2.66;81.65;99151.53;4963521;28;20039;-91
2022/01/08 02:46:00;;;;;;;3.58;1.67;;;;;;;2.63;81.69;99149.13;4942830;28;20047;-90
2022/01/08 02:48:27;;;;;;;4.00;1.90;;;;;;;2.62;81.67;99145.66;4951556;28;20046;-90
2022/01/08 02:50:54;;;;;;;4.70;1.60;;;;;;;2.64;81.66;99140.31;4964135;28;20057;-90
2022/01/08 02:53:21;;;;;;;5.28;2.35;;;;;;;2.65;81.60;99139.38;4974934;28;20574;-88
2022/01/08 02:55:51;;;;;;;4.82;2.13;;;;;;;2.66;81.58;99141.06;4951749;28;20049;-88
2022/01/08 02:58:18;;;;;;;8.52;1.80;;;;;;;2.66;81.55;99136.63;4970266;28;20141;-88
2022/01/08 03:00:45;;;;;;;7.05;2.13;;;;;;;2.68;81.49;99133.94;4945663;28;20125;-88
2022/01/08 03:03:12;;;;;;;4.93;2.47;;;;;;;2.68;81.63;99136.56;4953909;28;20618;-87
2022/01/08 03:05:40;;;;;;;4.72;1.65;;;;;;;2.69;81.58;99139.06;4959382;28;20133;-88
2022/01/08 03:08:07;;;;;;;3.70;1.83;;;;;;;2.68;81.71;99128.69;4961841;28;20069;-88
2022/01/08 03:10:34;;;;;;;4.47;1.95;;;;;;;2.70;81.75;99129.44;4940640;28;20053;-90
2022/01/08 03:13:02;;;;;;;9.32;1.83;;;;;;;2.72;81.75;99131.00;4950546;28;20057;-90
2022/01/08 03:15:33;;;;;;;4.32;1.98;;;;;;;2.68;81.62;99119.03;4952262;28;20043;-90
2022/01/08 03:18:00;;;;;;;6.00;1.85;;;;;;;2.71;81.51;99124.06;4964662;28;20057;-89
2022/01/08 03:20:27;;;;;;;5.43;1.52;;;;;;;2.71;81.55;99118.81;4963038;28;20165;-90
2022/01/08 03:23:01;;;;;;;3.13;1.63;;;;;;;2.72;81.57;99122.28;4962706;28;20422;-90
2022/01/08 03:25:29;;;;;;;4.28;2.13;;;;;;;2.72;81.74;99112.66;4935037;28;20093;-90
2022/01/08 03:28:20;;;;;;;7.93;2.28;;;;;;;2.65;81.50;99118.41;4953978;28;20046;-90
2022/01/08 03:30:50;;;;;;;5.15;2.20;;;;;;;2.70;81.71;99114.53;4947350;28;20060;-90
2022/01/08 03:33:16;;;;;;;8.90;2.30;;;;;;;2.70;81.50;99117.16;4927542;28;20054;-90
2022/01/08 03:35:43;;;;;;;5.97;2.35;;;;;;;2.71;81.47;99115.38;4949507;28;20042;-89
2022/01/08 03:38:10;;;;;;;10.38;2.88;;;;;;;2.70;81.31;99114.53;4966798;28;20066;-89
2022/01/08 03:40:37;;;;;;;4.90;2.13;;;;;;;2.68;81.34;99116.41;4956337;28;20047;-89
2022/01/08 03:43:04;;;;;;;4.78;1.75;;;;;;;2.70;81.21;99125.03;4950549;28;20497;-89
2022/01/08 03:45:31;;;;;;;5.82;1.80;;;;;;;2.68;81.21;99132.13;4959560;28;20046;-90
2022/01/08 03:50:34;;;;;;;2.25;1.52;;;;;;;2.68;81.20;99134.75;4967347;28;20046;-89
2022/01/08 03:53:00;;;;;;;5.68;1.70;;;;;;;2.68;81.18;99128.69;4951422;28;20114;-89
2022/01/08 03:55:27;;;;;;;3.58;2.03;;;;;;;2.66;81.13;99130.56;4966274;28;20041;-88
2022/01/08 03:57:54;;;;;;;7.22;2.10;;;;;;;2.67;81.38;99132.22;4958257;28;20051;-89
2022/01/08 04:00:21;;;;;;;4.03;2.55;;;;;;;2.66;81.30;99131.41;4974860;28;20375;-89
2022/01/08 04:02:48;;;;;;;7.38;2.58;;;;;;;2.64;81.45;99125.41;4969974;28;20050;-90
2022/01/08 04:05:15;;;;;;;7.57;2.40;;;;;;;2.63;81.31;99129.00;4969937;28;20046;-90
2022/01/08 04:07:43;;;;;;;9.25;2.30;;;;;;;2.63;81.57;99130.78;4965450;28;20483;-90
2022/01/08 04:10:09;;;;;;;4.07;1.95;;;;;;;2.62;81.39;99129.94;4985557;28;20042;-89
2022/01/08 04:12:42;;;;;;;5.28;2.30;;;;;;;2.60;81.39;99132.66;4953706;28;20069;-89
2022/01/08 04:15:32;;;;;;;5.90;2.33;;;;;;;2.59;81.47;99125.72;4917399;28;20043;-90
2022/01/08 04:17:56;;;;;;;5.40;2.53;;;;;;;2.57;81.45;99130.25;4978323;28;20042;-89
2022/01/08 04:20:23;;;;;;;4.20;2.78;;;;;;;2.58;81.46;99131.06;4973648;28;20092;-91
2022/01/08 04:22:51;;;;;;;5.35;1.85;;;;;;;2.56;81.37;99131.16;4941809;28;20042;-90
2022/01/08 04:25:22;;;;;;;4.97;2.53;;;;;;;2.55;81.32;99131.28;4958309;28;20130;-89
2022/01/08 04:27:50;;;;;;;6.45;2.15;;;;;;;2.57;81.15;99126.75;4969906;28;20053;-89
2022/01/08 04:30:17;;;;;;;7.50;2.05;;;;;;;2.57;81.47;99132.00;4984066;28;20058;-89
2022/01/08 04:32:44;;;;;;;4.78;2.28;;;;;;;2.56;81.39;99127.72;4958980;28;20400;-89
2022/01/08 04:35:11;;;;;;;8.25;2.60;;;;;;;2.55;81.25;99131.28;4942293;28;20054;-89
2022/01/08 04:37:37;;;;;;;4.30;2.63;;;;;;;2.54;81.32;99134.84;4940888;28;20057;-88
2022/01/08 04:40:05;;;;;;;4.80;2.58;;;;;;;2.53;81.36;99130.53;4982176;28;20126;-89
2022/01/08 04:42:32;;;;;;;4.60;2.22;;;;;;;2.52;81.02;99132.34;4964593;28;20048;-88
2022/01/08 04:44:59;;;;;;;6.13;2.35;;;;;;;2.53;81.46;99141.03;4953809;28;20602;-88
2022/01/08 04:47:26;;;;;;;3.35;2.00;;;;;;;2.53;81.33;99141.03;4957730;28;20041;-89
2022/01/08 04:49:53;;;;;;;5.55;2.58;;;;;;;2.53;81.36;99146.28;4937102;28;20043;-88
2022/01/08 04:52:20;;;;;;;6.57;2.35;;;;;;;2.52;81.37;99147.19;4947560;28;20101;-89
2022/01/08 04:54:47;;;;;;;6.25;2.75;;;;;;;2.51;81.29;99151.59;4938866;28;20050;-90
2022/01/08 04:57:14;;;;;;;5.75;3.60;;;;;;;2.52;81.29;99157.69;4952586;28;20046;-88
2022/01/08 04:59:40;;;;;;;9.60;3.22;;;;;;;2.52;81.18;99163.78;4974874;28;20065;-89
2022/01/08 05:02:07;;;;;;;4.70;3.03;;;;;;;2.54;81.27;99155.78;4986323;28;20038;-89
2022/01/08 05:04:34;;;;;;;8.80;4.25;;;;;;;2.53;81.26;99164.63;4980168;28;20054;-89
2022/01/08 05:07:01;;;;;;;4.70;2.05;;;;;;;2.51;81.35;99161.25;4964234;28;20394;-89
2022/01/08 05:09:28;;;;;;;7.47;3.33;;;;;;;2.52;81.11;99163.78;4969746;28;20084;-89
2022/01/08 05:11:55;;;;;;;4.85;2.72;;;;;;;2.51;81.18;99177.81;4964817;28;20046;-89
2022/01/08 05:14:23;;;;;;;9.55;3.90;;;;;;;2.51;81.15;99179.59;4957226;28;20065;-89
2022/01/08 05:16:56;;;;;;;7.70;4.47;;;;;;;2.50;81.18;99185.78;4965973;28;20054;-88
2022/01/08 05:19:35;;;;;;;5.68;3.28;;;;;;;2.49;81.37;99182.31;4989492;28;20038;-89
2022/01/08 05:22:05;;;;;;;7.20;3.28;;;;;;;2.50;81.38;99189.25;4964999;28;20055;-89
2022/01/08 05:24:33;;;;;;;8.10;3.53;;;;;;;2.50;81.10;99196.28;4971649;28;20395;-89
2022/01/08 05:27:02;;;;;;;10.20;3.88;;;;;;;2.49;81.22;99199.81;4953980;28;20050;-89
2022/01/08 05:29:30;;;;;;;8.63;3.75;;;;;;;2.48;81.24;99209.47;4952050;28;20125;-89
2022/01/08 05:31:57;;;;;;;13.68;4.07;;;;;;;2.49;81.40;99213.75;4930738;28;20081;-89
2022/01/08 05:34:24;;;;;;;6.20;3.75;;;;;;;2.48;81.29;99225.19;4968796;28;20120;-89
2022/01/08 05:36:51;;;;;;;7.47;4.07;;;;;;;2.47;81.06;99231.38;4982078;28;20046;-88
2022/01/08 05:39:18;;;;;;;7.32;4.20;;;;;;;2.46;81.44;99224.44;4966290;28;20406;-89
2022/01/08 05:41:44;;;;;;;7.80;3.55;;;;;;;2.46;81.17;99236.72;4965899;28;20046;-89
2022/01/08 05:44:11;;;;;;;8.55;3.75;;;;;;;2.46;81.47;99242.78;4946047;28;20138;-89
2022/01/08 05:46:43;;;;;;;5.97;3.28;;;;;;;2.46;81.44;99248.03;4960384;28;20046;-88
2022/01/08 05:49:11;;;;;;;8.05;3.97;;;;;;;2.47;81.52;99254.09;4972175;28;20065;-89
2022/01/08 05:51:38;;;;;;;6.43;3.38;;;;;;;2.47;81.63;99265.44;4967068;28;20045;-89
2022/01/08 05:54:05;;;;;;;5.75;3.35;;;;;;;2.48;81.69;99274.13;4956610;28;20417;-91
2022/01/08 05:56:32;;;;;;;4.72;2.95;;;;;;;2.48;81.44;99276.75;4958294;28;20042;-91
2022/01/08 05:58:59;;;;;;;6.55;3.33;;;;;;;2.49;81.58;99284.50;4958750;28;20106;-89
2022/01/08 06:01:25;;;;;;;5.50;3.40;;;;;;;2.50;81.67;99295.84;4958126;28;20054;-90
2022/01/08 06:03:52;;;;;;;7.55;4.15;;;;;;;2.48;81.71;99305.59;4976765;28;20043;-90
2022/01/08 06:06:20;;;;;;;5.45;3.72;;;;;;;2.50;81.72;99311.56;4989100;28;20724;-91
2022/01/08 06:08:47;;;;;;;6.85;3.90;;;;;;;2.45;81.94;99332.00;4967360;28;20050;-91
2022/01/08 06:11:14;;;;;;;7.28;4.45;;;;;;;2.44;81.72;99339.00;4983697;28;20050;-90
2022/01/08 06:13:41;;;;;;;5.63;3.58;;;;;;;2.45;81.78;99348.56;4978425;28;20065;-90
2022/01/08 06:16:07;;;;;;;5.20;3.35;;;;;;;2.45;81.71;99360.81;4955441;28;20053;-91
2022/01/08 06:18:35;;;;;;;5.95;2.92;;;;;;;2.49;81.69;99372.78;4957135;28;20046;-89
2022/01/08 06:21:03;;;;;;;6.60;3.80;;;;;;;2.51;81.67;99381.38;4968009;28;20041;-90
2022/01/08 06:24:00;;;;;;;3.50;2.45;;;;;;;2.44;81.49;99396.63;4972543;28;20573;-90
2022/01/08 06:26:27;;;;;;;4.95;2.58;;;;;;;2.50;81.79;99398.06;4929605;28;20128;-89
2022/01/08 06:28:54;;;;;;;2.67;2.08;;;;;;;2.53;81.62;99403.09;4958923;28;20046;-90
2022/01/08 06:31:22;;;;;;;3.78;2.42;;;;;;;2.53;81.34;99411.81;4940128;28;20046;-90
2022/01/08 06:33:50;;;;;;;2.97;1.95;;;;;;;2.53;81.66;99422.28;4969883;28;20050;-90
2022/01/08 06:36:18;;;;;;;3.75;2.13;;;;;;;2.53;81.56;99429.31;4964144;28;20515;-90
2022/01/08 06:38:46;;;;;;;3.38;1.85;;;;;;;2.59;81.20;99450.72;4940283;28;20054;-90
2022/01/08 06:41:13;;;;;;;2.53;1.70;;;;;;;2.54;81.26;99457.19;4968986;28;20076;-89
2022/01/08 06:43:40;;;;;;;2.78;1.55;;;;;;;2.54;81.03;99465.06;4955280;28;20054;-89
2022/01/08 06:46:07;;;;;;;2.47;1.10;;;;;;;2.51;80.73;99479.19;4941630;28;20061;-89
2022/01/08 06:48:34;;;;;;;2.55;1.23;;;;;;;2.49;80.40;99493.31;4970938;28;20069;-90
2022/01/08 06:51:02;;;;;;;2.88;1.10;;;;;;;2.47;80.74;99505.66;4934809;28;20041;-91
2022/01/08 06:53:29;;;;;;;1.10;1.00;;;;;;;2.50;80.77;99508.13;4954429;28;20043;-90
2022/01/08 06:55:56;;;;;;;1.15;0.93;;;;;;;2.47;80.85;99516.16;4955604;28;20050;-89
2022/01/08 06:58:29;;;;;;;1.35;1.00;;;;;;;2.49;80.53;99530.84;4958907;28;20056;-90
2022/01/08 07:00:56;;;;;;;2.38;1.05;;;;;;;2.47;80.94;99534.50;4961162;28;21072;-91
2022/01/08 07:03:23;;;;;;;1.02;0.90;;;;;;;2.48;80.91;99558.00;4938124;28;20049;-90
2022/01/08 07:05:50;;;;;;;1.33;0.80;;;;;;;2.48;80.85;99558.00;4967078;28;20512;-91
2022/01/08 07:08:17;;;;;;;1.67;0.93;;;;;;;2.48;81.16;99560.63;4966386;28;20058;-90
2022/01/08 07:10:43;;;;;;;2.55;0.70;;;;;;;2.48;81.14;99568.50;4936585;28;20181;-91
2022/01/08 07:13:12;;;;;;;1.55;1.20;;;;;;;2.52;80.71;99577.00;4972323;28;20046;-90
2022/01/08 07:15:39;;;;;;;1.50;1.10;;;;;;;2.49;80.89;99582.44;4987088;28;20038;-91
2022/01/08 07:18:06;;;;;;;1.95;1.23;;;;;;;2.50;80.93;99586.75;4955454;28;20053;-91
2022/01/08 07:20:35;;;;;;;2.72;1.52;;;;;;;2.50;81.05;99590.22;4959912;28;20065;-89
2022/01/08 07:23:01;;;;;;;2.28;1.42;;;;;;;2.50;81.18;99595.47;4971480;28;20049;-90
2022/01/08 07:25:29;;;;;;;1.15;1.05;;;;;;;2.51;80.84;99612.03;4953487;28;20096;-89
2022/01/08 07:27:56;;;;;;;1.30;1.17;;;;;;;2.50;80.82;99610.34;4967782;28;20043;-93
2022/01/08 07:30:23;;;;;;;1.50;1.27;;;;;;;2.51;81.10;99622.50;4952337;28;20049;-90
2022/01/08 07:32:52;;;;;;;1.40;1.15;;;;;;;2.51;80.98;99623.34;4966331;28;20053;-89
2022/01/08 07:35:22;;;;;;;1.83;1.33;;;;;;;2.53;80.97;99636.38;4951019;28;20066;-90
2022/01/08 07:37:50;;;;;;;2.75;2.10;;;;;;;2.53;81.11;99642.44;4938918;28;20122;-87
2022/01/08 07:40:20;;;;;;;2.20;1.67;;;;;;;2.51;81.13;99652.16;4977612;28;20042;-86
2022/01/08 07:42:47;;;;;;;2.15;1.67;;;;;;;2.53;81.06;99657.34;4948325;28;20031;-86
2022/01/08 07:45:16;;;;;;;2.13;1.58;;;;;;;2.52;80.84;99663.50;4992568;28;20046;-86
2022/01/08 07:47:43;;;;;;;2.42;1.98;;;;;;;2.53;81.03;99670.44;4973280;28;20139;-86
2022/01/08 07:50:12;;;;;;;2.75;2.10;;;;;;;2.54;81.13;99675.56;4955944;28;20053;-87
2022/01/08 07:52:39;;;;;;;2.53;2.10;;;;;;;2.53;81.33;99686.16;4938561;28;20046;-86
2022/01/08 07:55:12;;;;;;;5.25;2.60;;;;;;;2.52;81.23;99694.94;4956012;28;20039;-87
2022/01/08 07:57:40;;;;;;;3.67;2.50;;;;;;;2.54;81.32;99704.41;4968112;28;20043;-86
2022/01/08 08:00:08;;;;;;;3.95;2.72;;;;;;;2.56;81.06;99701.72;4963865;28;20066;-87
2022/01/08 08:02:40;;;;;;;4.03;2.85;;;;;;;2.54;81.36;99717.50;4975338;28;20054;-86
2022/01/08 08:05:08;;;;;;;3.08;2.78;;;;;;;2.56;81.41;99722.69;4952284;28;20053;-87
2022/01/08 08:07:38;;;;;;;6.43;3.22;;;;;;;2.57;81.47;99717.38;4966314;28;20054;-86
2022/01/08 08:10:06;;;;;;;6.78;3.90;;;;;;;2.57;81.38;99732.22;4936431;28;20140;-86
2022/01/08 08:12:33;;;;;;;6.63;3.65;;;;;;;2.60;81.40;99745.19;4935861;28;20112;-86
2022/01/08 08:15:00;;;;;;;6.13;3.20;;;;;;;2.58;81.40;99747.03;4952741;28;20034;-86
2022/01/08 08:17:26;;;;;;;6.05;3.20;;;;;;;2.59;81.54;99740.84;4967286;28;20054;-86
2022/01/08 08:19:53;;;;;;;4.57;2.35;;;;;;;2.60;81.57;99755.66;4952772;28;20053;-87
2022/01/08 08:22:20;;;;;;;4.75;2.90;;;;;;;2.61;81.34;99757.34;4971317;28;20061;-87
2022/01/08 08:24:47;;;;;;;7.03;3.38;;;;;;;2.62;81.10;99759.03;4948814;28;20129;-86
2022/01/08 08:27:13;;;;;;;4.65;3.15;;;;;;;2.63;81.50;99762.50;4984265;28;20056;-86
2022/01/08 08:29:41;;;;;;;6.10;3.90;;;;;;;2.63;81.54;99765.13;4978279;28;20058;-86
2022/01/08 08:32:08;;;;;;;9.00;5.53;;;;;;;2.64;81.24;99767.66;4985614;28;20065;-86
2022/01/08 08:34:36;;;;;;;11.82;5.80;;;;;;;2.64;81.26;99772.88;4971698;28;20046;-84
2022/01/08 08:37:04;;;;;;;10.57;6.03;;;;;;;2.64;81.38;99772.88;4938499;28;20045;-86
2022/01/08 08:39:32;;;;;;;16.02;7.97;;;;;;;2.65;81.31;99771.97;4941513;28;20074;-85
2022/01/08 08:42:00;;;;;;;13.60;6.70;;;;;;;2.66;81.43;99772.81;4954963;28;20050;-85
2022/01/08 08:44:27;;;;;;;17.63;8.13;;;;;;;2.66;81.45;99772.81;4949865;28;20038;-85
2022/01/08 08:46:54;;;;;;;19.92;9.30;;;;;;;2.67;81.52;99772.75;4929984;28;20048;-85
2022/01/08 08:49:21;;;;;;;16.38;9.27;;;;;;;2.68;81.46;99778.81;4950418;28;20093;-85
2022/01/08 08:51:47;;;;;;;17.38;8.48;;;;;;;2.68;81.31;99782.28;4933297;28;20039;-85
2022/01/08 08:54:15;;;;;;;12.20;6.85;;;;;;;2.70;81.55;99787.44;4977703;28;20049;-84
2022/01/08 08:56:42;;;;;;;16.05;7.40;;;;;;;2.72;81.79;99791.66;4983707;28;20074;-84
2022/01/08 08:59:10;;;;;;;11.73;6.78;;;;;;;2.73;81.48;99800.38;4958100;28;20138;-84
2022/01/08 09:01:37;;;;;;;15.02;7.25;;;;;;;2.72;81.61;99802.16;4967063;28;20046;-84
2022/01/08 09:04:04;;;;;;;14.73;6.28;;;;;;;2.72;81.58;99811.78;4972305;28;20497;-85
2022/01/08 09:06:33;;;;;;;14.00;5.65;;;;;;;2.73;81.49;99822.19;4975719;28;20050;-85
2022/01/08 09:08:59;;;;;;;11.90;5.72;;;;;;;2.72;81.47;99817.03;4950336;28;20049;-84
2022/01/08 09:11:28;;;;;;;13.05;5.70;;;;;;;2.73;81.67;99818.72;4950963;28;20062;-84
2022/01/08 09:13:56;;;;;;;11.77;5.78;;;;;;;2.70;81.60;99821.53;4974964;28;20046;-85
2022/01/08 09:16:23;;;;;;;14.93;6.32;;;;;;;2.72;81.62;99817.03;4981937;28;20649;-86
2022/01/08 09:18:51;;;;;;;18.35;6.57;;;;;;;2.72;81.50;99832.75;4972935;28;20509;-85
2022/01/08 09:21:18;;;;;;;14.45;6.43;;;;;;;2.71;81.54;99834.53;4969227;28;20501;-85
2022/01/08 09:23:45;;;;;;;17.65;5.53;;;;;;;2.71;81.79;99831.91;4968850;28;20375;-86
2022/01/08 09:26:12;;;;;;;13.13;5.25;;;;;;;2.72;81.75;99833.63;4967971;28;20135;-85
2022/01/08 09:28:39;;;;;;;12.48;6.70;;;;;;;2.73;81.67;99837.94;4956500;28;20050;-86
2022/01/08 09:31:06;;;;;;;19.67;7.93;;;;;;;2.74;81.50;99839.59;4969488;28;20041;-85
2022/01/08 09:33:34;;;;;;;19.63;6.88;;;;;;;2.75;82.00;99840.47;4982929;28;20058;-85
2022/01/08 09:36:01;;;;;;;14.55;7.35;;;;;;;2.76;81.85;99837.75;4940037;28;20499;-86
2022/01/08 09:38:28;;;;;;;15.95;6.38;;;;;;;2.76;81.82;99839.53;4972068;28;20125;-85
2022/01/08 09:40:55;;;;;;;16.13;6.75;;;;;;;2.77;81.79;99852.56;4950237;28;20055;-84
2022/01/08 09:43:22;;;;;;;14.07;4.53;;;;;;;2.77;81.70;99849.94;4936169;28;20157;-85
2022/01/08 09:45:49;;;;;;;10.82;3.92;;;;;;;2.75;81.61;99841.31;4967872;28;20043;-86
2022/01/08 09:48:16;;;;;;;7.60;4.18;;;;;;;2.75;81.75;99843.09;4945431;28;20050;-85
2022/01/08 09:50:43;;;;;;;11.75;4.43;;;;;;;2.77;81.93;99849.94;4985123;28;20512;-83
2022/01/08 09:53:11;;;;;;;7.38;4.38;;;;;;;2.77;81.87;99839.44;4972139;28;20465;-83
2022/01/08 09:55:38;;;;;;;8.57;4.80;;;;;;;2.79;81.86;99842.81;4976579;28;20057;-85
2022/01/08 09:58:05;;;;;;;9.43;4.18;;;;;;;2.81;82.00;99842.75;4986561;28;20089;-85
2022/01/08 10:00:34;;;;;;;9.90;4.00;;;;;;;2.81;82.05;99842.75;4953340;28;20053;-85
2022/01/08 10:03:20;;;;;;;8.00;4.55;;;;;;;2.77;81.77;99849.06;4971229;28;20042;-86
2022/01/08 10:05:54;;;;;;;13.43;4.88;;;;;;;2.82;82.26;99850.53;4925737;28;20499;-88
2022/01/08 10:08:42;;;;;;;12.15;4.50;;;;;;;2.86;82.17;99845.94;4905191;28;20067;-85
2022/01/08 10:11:10;;;;;;;10.32;3.97;;;;;;;2.92;82.16;99839.50;4966061;28;20502;-84
2022/01/08 10:13:41;;;;;;;7.97;3.88;;;;;;;2.96;82.51;99836.63;4968093;28;20050;-86
2022/01/08 10:19:20;;;;;;;13.77;4.80;;;;;;;3.01;82.51;99836.38;4883431;28;20509;-87
2022/01/08 10:21:47;;;;;;;13.77;4.40;;;;;;;3.11;82.69;99832.28;4961566;28;20039;-88
2022/01/08 10:24:21;;;;;;;7.80;3.83;;;;;;;3.11;82.11;99832.28;4953600;28;20042;-88
2022/01/08 10:26:49;;;;;;;12.40;3.70;;;;;;;3.22;82.10;99829.88;4983067;28;20450;-85
2022/01/08 10:29:19;;;;;;;13.60;3.75;;;;;;;3.18;81.39;99833.63;4957589;28;20486;-85
2022/01/08 10:31:52;;;;;;;13.18;3.97;;;;;;;3.17;80.98;99834.53;4902575;29;23664;-85
2022/01/08 10:34:27;;;;;;;13.07;2.67;;;;;;;3.06;81.11;99828.25;4873409;29;20047;-86
2022/01/08 10:36:57;;;;;;;11.35;3.83;;;;;;;3.08;81.59;99831.59;4893881;29;20051;-84
2022/01/08 10:39:27;;;;;;;10.75;2.95;;;;;;;3.08;81.93;99826.34;4913357;29;20387;-85
2022/01/08 10:41:55;;;;;;;10.85;3.22;;;;;;;3.08;81.59;99828.97;4906800;29;20134;-85
2022/01/08 10:44:31;;;;;;;16.52;3.28;;;;;;;3.08;81.54;99824.59;4889917;29;20142;-84
2022/01/08 10:47:10;;;;;;;11.77;3.47;;;;;;;3.01;81.36;99825.88;4871538;29;20134;-86
2022/01/08 10:50:00;;;;;;;13.00;4.97;;;;;;;2.99;81.55;99819.88;4877358;29;20058;-84
2022/01/08 10:52:28;;;;;;;10.82;3.58;;;;;;;3.02;81.64;99823.16;4919866;29;20143;-85
2022/01/08 10:54:57;;;;;;;16.13;8.13;;;;;;;3.07;81.28;99822.88;4894916;29;20058;-84
2022/01/08 10:57:33;;;;;;;10.23;3.70;;;;;;;3.01;80.61;99821.47;4901879;28;20559;-85
2022/01/08 11:00:00;;;;;;;12.18;5.43;;;;;;;3.11;80.79;99819.16;4895829;29;20051;-85
2022/01/08 11:02:28;;;;;;;12.00;4.55;;;;;;;3.08;80.70;99821.09;4918482;28;20053;-86
2022/01/08 11:04:56;;;;;;;14.13;3.45;;;;;;;3.16;80.38;99826.78;4954117;28;20046;-84
2022/01/08 11:07:27;;;;;;;10.68;3.67;;;;;;;3.07;79.82;99819.44;4965112;28;20053;-84
2022/01/08 11:10:04;;;;;;;14.60;4.35;;;;;;;3.07;80.22;99814.19;4954920;28;20057;-84
2022/01/08 11:12:42;;;;;;;9.90;4.60;;;;;;;3.09;80.12;99809.69;4967301;28;20085;-82
2022/01/08 11:17:57;;;;;;;11.50;3.75;;;;;;;3.42;82.08;99797.22;4982451;28;20131;-86
2022/01/08 11:20:45;;;;;;;22.33;4.70;;;;;;;3.44;81.02;99805.00;4933918;28;20051;-86
2022/01/08 11:23:14;;;;;;;14.05;4.43;;;;;;;3.36;80.69;99794.97;4949306;28;20046;-86
2022/01/08 11:25:42;;;;;;;11.07;4.05;;;;;;;3.40;79.74;99792.97;4967548;28;20046;-86
2022/01/08 11:28:16;;;;;;;13.13;4.03;;;;;;;3.31;79.71;99791.75;4982515;28;20070;-87
2022/01/08 11:30:50;;;;;;;12.45;4.05;;;;;;;3.31;79.54;99786.50;4942103;28;20051;-88
2022/01/08 11:33:25;;;;;;;8.48;4.18;;;;;;;3.25;76.81;99792.09;4947022;28;20046;-86
2022/01/08 11:35:54;;;;;;;14.40;4.65;;;;;;;3.35;79.56;99781.91;4944039;28;20053;-76
2022/01/08 11:38:23;;;;;;;13.40;4.30;;;;;;;3.30;78.91;99787.44;4980731;28;20096;-75
2022/01/08 11:40:51;;;;;;;11.45;4.10;;;;;;;3.35;79.17;99781.91;4981806;28;20050;-76
2022/01/08 11:43:20;;;;;;;12.48;4.35;;;;;;;3.40;79.54;99779.84;4978619;28;20050;-75
2022/01/08 11:46:03;;;;;;;15.73;4.70;;;;;;;3.44;79.53;99769.09;4989468;28;20061;-76
2022/01/08 11:48:34;;;;;;;20.00;6.23;;;;;;;3.42;78.75;99768.34;4980962;28;20054;-76
2022/01/08 11:51:02;;;;;;;9.18;4.10;;;;;;;3.46;79.13;99771.59;4975676;28;20045;-75
2022/01/08 11:53:31;;;;;;;10.38;4.05;;;;;;;3.47;79.08;99770.69;4956593;28;20057;-76
2022/01/08 11:56:00;;;;;;;13.43;3.67;;;;;;;3.50;79.03;99765.25;4977354;28;20073;-76
2022/01/08 11:58:34;;;;;;;12.18;4.38;;;;;;;3.48;78.71;99765.31;4970829;28;20421;-76
2022/01/08 12:01:06;;;;;;;12.90;3.20;;;;;;;3.44;77.27;99755.97;4967305;28;20077;-76
2022/01/08 12:03:51;;;;;;;13.18;3.50;;;;;;;3.52;78.09;99747.63;4982737;28;20062;-76
2022/01/08 12:06:26;;;;;;;13.32;3.60;;;;;;;3.63;78.39;99744.34;4955085;28;20051;-76
2022/01/08 12:09:08;;;;;;;10.48;3.45;;;;;;;3.63;77.52;99737.31;4983256;28;20112;-76
2022/01/08 12:11:47;;;;;;;11.50;2.97;;;;;;;3.59;76.74;99730.56;4996314;28;20057;-76